Time;durP1;ratioP1;P1;durP2;ratioP2;P2;SDS_P1;SDS_P2;PMS_P1;PMS_P2;Temp;Humidity;BMP_temperature;BMP_pressure;BME280_temperature;BME280_humidity;BME280_pressure;Samples;Min_cycle;Max_cycle;Signal;HPM_P1;HPM_P2
2022/03/21 00:01:05;;;;;;;4.47;2.78;;;-2.00;70.80;;;;;;5017991;28;20041;-69
2022/03/21 00:03:31;;;;;;;5.03;3.03;;;-2.00;70.40;;;;;;5018193;28;20041;-68
2022/03/21 00:05:58;;;;;;;4.97;3.13;;;-2.00;70.70;;;;;;5014646;28;20426;-69
2022/03/21 00:08:24;;;;;;;7.68;3.50;;;-2.00;71.40;;;;;;5018023;28;20034;-69
2022/03/21 00:10:53;;;;;;;5.55;3.65;;;-1.90;72.70;;;;;;5014480;28;20037;-68
2022/03/21 00:13:19;;;;;;;5.53;3.55;;;-1.90;72.40;;;;;;5014143;28;20033;-68
2022/03/21 00:15:46;;;;;;;4.65;2.90;;;-1.90;72.70;;;;;;5001166;28;20041;-69
2022/03/21 00:18:13;;;;;;;5.18;3.60;;;-1.80;71.50;;;;;;5015141;28;20068;-69
2022/03/21 00:20:41;;;;;;;5.38;3.15;;;-1.80;72.20;;;;;;5019434;28;20037;-68
2022/03/21 00:23:06;;;;;;;4.72;3.10;;;-1.80;71.20;;;;;;5015490;28;20116;-68
2022/03/21 00:25:32;;;;;;;4.82;2.88;;;-1.90;70.60;;;;;;5016991;28;20060;-70
2022/03/21 00:27:58;;;;;;;4.82;2.85;;;-2.00;71.40;;;;;;5002308;28;20088;-69
2022/03/21 00:30:25;;;;;;;5.72;3.42;;;-2.10;72.80;;;;;;5018241;28;20037;-69
2022/03/21 00:32:51;;;;;;;3.67;2.70;;;-2.10;72.10;;;;;;5016680;28;20052;-71
2022/03/21 00:35:16;;;;;;;3.85;2.75;;;-2.10;71.20;;;;;;5014292;28;20033;-72
2022/03/21 00:37:44;;;;;;;4.53;2.67;;;-2.20;71.20;;;;;;5012742;28;21018;-71
2022/03/21 00:40:12;;;;;;;3.70;2.65;;;-2.30;72.50;;;;;;5005718;28;20154;-71
2022/03/21 00:42:40;;;;;;;10.50;3.53;;;-2.30;72.50;;;;;;5020020;28;20510;-71
2022/03/21 00:45:11;;;;;;;5.20;3.63;;;-2.30;72.60;;;;;;5014851;28;20814;-70
2022/03/21 00:47:37;;;;;;;7.78;3.72;;;-2.20;72.30;;;;;;5012388;28;20160;-71
2022/03/21 00:50:04;;;;;;;8.55;4.28;;;-2.10;73.00;;;;;;5011481;28;20053;-71
2022/03/21 00:52:32;;;;;;;6.63;4.70;;;-2.10;72.00;;;;;;5008769;28;20160;-70
2022/03/21 00:54:58;;;;;;;8.98;5.35;;;-2.00;71.70;;;;;;5009327;28;20033;-70
2022/03/21 00:57:24;;;;;;;6.88;4.15;;;-1.80;71.40;;;;;;5007724;28;20393;-69
2022/03/21 00:59:49;;;;;;;5.18;3.00;;;-1.70;71.80;;;;;;5013368;28;20046;-70
2022/03/21 01:02:15;;;;;;;7.00;3.28;;;-1.80;70.60;;;;;;5011850;28;20422;-69
2022/03/21 01:04:42;;;;;;;5.97;3.50;;;-1.90;70.80;;;;;;5013810;28;21690;-69
2022/03/21 01:07:08;;;;;;;5.07;3.00;;;-2.00;72.10;;;;;;5008930;28;21098;-69
2022/03/21 01:09:33;;;;;;;4.43;3.20;;;-2.10;71.50;;;;;;5003829;28;20052;-69
2022/03/21 01:12:03;;;;;;;7.50;2.90;;;-2.30;72.40;;;;;;5007963;28;20045;-69
2022/03/21 01:14:30;;;;;;;5.13;2.70;;;-2.40;72.20;;;;;;5011425;28;20096;-69
2022/03/21 01:16:57;;;;;;;5.00;2.58;;;-2.40;72.60;;;;;;5018283;28;20486;-69
2022/03/21 01:19:23;;;;;;;5.15;2.97;;;-2.40;72.20;;;;;;5021034;28;20045;-69
2022/03/21 01:21:49;;;;;;;4.97;2.97;;;-2.40;71.70;;;;;;5004346;28;20046;-69
2022/03/21 01:24:15;;;;;;;5.38;3.00;;;-2.50;72.20;;;;;;5020308;28;20053;-69
2022/03/21 01:26:41;;;;;;;5.15;2.60;;;-2.50;73.60;;;;;;5023606;28;20037;-69
2022/03/21 01:29:06;;;;;;;6.07;3.33;;;-2.50;74.30;;;;;;5019037;28;20056;-69
2022/03/21 01:31:33;;;;;;;5.75;2.75;;;-2.50;74.20;;;;;;5019621;28;20095;-69
2022/03/21 01:33:58;;;;;;;5.68;2.47;;;-2.50;73.10;;;;;;5008988;28;20042;-69
2022/03/21 01:36:24;;;;;;;4.35;3.47;;;-2.50;73.70;;;;;;5023077;28;20025;-69
2022/03/21 01:38:50;;;;;;;5.60;3.40;;;-2.40;73.70;;;;;;5027280;28;20037;-69
2022/03/21 01:41:15;;;;;;;5.57;3.50;;;-2.50;73.60;;;;;;5020289;28;20086;-69
2022/03/21 01:43:57;;;;;;;7.50;3.00;;;-2.40;73.90;;;;;;5016941;28;20045;-69
2022/03/21 01:46:23;;;;;;;;;;;-2.40;73.30;;;;;;5016787;28;20342;-69
2022/03/21 01:48:49;;;;;;;6.45;2.90;;;-2.50;73.50;;;;;;5016434;28;19913;-69
2022/03/21 01:51:14;;;;;;;5.32;3.40;;;-2.50;73.10;;;;;;5011194;28;20041;-69
2022/03/21 01:56:26;;;;;;;3.40;2.83;;;-2.50;74.80;;;;;;5017935;28;20538;-69
2022/03/21 01:58:52;;;;;;;4.28;2.85;;;-2.50;74.40;;;;;;5016880;28;20029;-69
2022/03/21 02:01:17;;;;;;;4.57;3.20;;;-2.50;74.50;;;;;;5013550;28;20212;-70
2022/03/21 02:03:44;;;;;;;6.55;3.05;;;-2.60;74.60;;;;;;5008749;28;20065;-69
2022/03/21 02:06:10;;;;;;;6.32;3.20;;;-2.70;72.50;;;;;;4990653;28;20037;-69
2022/03/21 02:08:36;;;;;;;5.43;3.53;;;-2.80;72.30;;;;;;5009221;28;20038;-69
2022/03/21 02:11:01;;;;;;;5.70;3.97;;;-3.00;71.50;;;;;;5012880;28;20168;-69
2022/03/21 02:13:28;;;;;;;5.18;3.55;;;-3.10;73.40;;;;;;5013290;28;20041;-69
2022/03/21 02:15:54;;;;;;;8.32;3.50;;;-3.10;74.30;;;;;;5016601;28;20112;-69
2022/03/21 02:18:20;;;;;;;4.32;3.30;;;-3.10;74.50;;;;;;5015446;28;20045;-69
2022/03/21 02:20:49;;;;;;;7.85;3.38;;;-3.10;75.40;;;;;;5014332;28;20045;-69
2022/03/21 02:23:30;;;;;;;6.20;3.70;;;-3.10;76.00;;;;;;5016947;28;20042;-69
2022/03/21 02:25:57;;;;;;;6.43;4.43;;;-3.00;75.90;;;;;;5013359;28;20030;-69
2022/03/21 02:28:26;;;;;;;10.68;4.60;;;-2.90;75.30;;;;;;5012823;28;20045;-69
2022/03/21 02:30:54;;;;;;;9.18;5.10;;;-2.90;75.10;;;;;;5019597;28;20031;-69
2022/03/21 02:33:21;;;;;;;6.28;4.03;;;-2.80;75.10;;;;;;5020627;28;20107;-69
2022/03/21 02:35:48;;;;;;;7.88;4.10;;;-2.70;75.80;;;;;;5009752;28;20037;-69
2022/03/21 02:38:16;;;;;;;8.63;3.58;;;-2.80;75.20;;;;;;5018677;28;20426;-69
2022/03/21 02:40:42;;;;;;;9.70;3.90;;;-2.80;74.80;;;;;;5020771;28;20065;-69
2022/03/21 02:43:08;;;;;;;7.43;3.33;;;-2.90;74.10;;;;;;5017864;28;20529;-69
2022/03/21 02:45:33;;;;;;;5.85;3.38;;;-2.90;73.10;;;;;;5019949;28;20475;-69
2022/03/21 02:47:59;;;;;;;4.10;3.20;;;-3.00;74.80;;;;;;5017039;28;20077;-69
2022/03/21 02:51:00;;;;;;;9.50;3.80;;;-3.00;75.90;;;;;;5021888;28;20124;-69
2022/03/21 02:53:29;;;;;;;8.07;4.25;;;-3.00;76.00;;;;;;5016322;28;20092;-69
2022/03/21 02:55:56;;;;;;;5.22;3.30;;;-2.90;75.70;;;;;;5012165;28;20068;-69
2022/03/21 02:58:21;;;;;;;5.00;3.40;;;-2.80;75.70;;;;;;5015071;28;20033;-69
2022/03/21 03:00:47;;;;;;;6.18;3.42;;;-2.90;74.30;;;;;;5010117;28;20026;-69
2022/03/21 03:03:13;;;;;;;5.45;3.65;;;-3.00;75.20;;;;;;5015851;28;20509;-69
2022/03/21 03:05:38;;;;;;;7.57;3.42;;;-3.10;75.40;;;;;;5021299;28;20134;-69
2022/03/21 03:08:04;;;;;;;7.15;4.22;;;-3.10;74.80;;;;;;5024794;28;20756;-70
2022/03/21 03:10:30;;;;;;;8.40;3.35;;;-3.20;74.10;;;;;;5024538;28;20052;-69
2022/03/21 03:12:56;;;;;;;4.90;3.53;;;-3.40;74.10;;;;;;5017778;28;20033;-69
2022/03/21 03:15:22;;;;;;;4.78;2.97;;;-3.50;74.40;;;;;;5013063;28;20041;-69
2022/03/21 03:17:47;;;;;;;5.78;4.18;;;-3.40;76.00;;;;;;5021989;28;20834;-69
2022/03/21 03:20:13;;;;;;;28.67;15.35;;;-3.30;76.30;;;;;;5019634;28;20533;-69
2022/03/21 03:22:39;;;;;;;7.97;4.07;;;-3.20;76.30;;;;;;5013518;28;20124;-69
2022/03/21 03:25:06;;;;;;;4.85;3.42;;;-3.10;75.90;;;;;;5000341;28;20686;-69
2022/03/21 03:27:31;;;;;;;4.25;2.88;;;-3.10;74.80;;;;;;5018018;28;20100;-69
2022/03/21 03:29:58;;;;;;;4.82;3.42;;;-3.20;74.60;;;;;;5022384;28;20037;-69
2022/03/21 03:32:25;;;;;;;7.03;4.00;;;-3.30;75.60;;;;;;5024640;28;20041;-69
2022/03/21 03:34:51;;;;;;;4.95;3.13;;;-3.40;76.10;;;;;;5021088;28;20077;-69
2022/03/21 03:37:16;;;;;;;5.78;3.60;;;-3.50;76.00;;;;;;5022969;28;20038;-69
2022/03/21 03:39:43;;;;;;;5.60;3.50;;;-3.60;76.60;;;;;;5020440;28;20049;-69
2022/03/21 03:42:08;;;;;;;6.03;3.13;;;-3.60;76.90;;;;;;5006310;28;20044;-69
2022/03/21 03:44:34;;;;;;;5.50;3.53;;;-3.50;76.60;;;;;;5020538;28;20073;-69
2022/03/21 03:47:00;;;;;;;6.32;3.72;;;-3.50;77.40;;;;;;5020220;28;20045;-69
2022/03/21 03:49:26;;;;;;;4.07;3.40;;;-3.50;78.00;;;;;;5011253;28;20040;-69
2022/03/21 03:51:52;;;;;;;5.88;4.38;;;-3.40;77.40;;;;;;5018879;28;20022;-68
2022/03/21 03:54:18;;;;;;;5.38;3.67;;;-3.40;76.80;;;;;;5011947;28;20033;-69
2022/03/21 03:56:44;;;;;;;5.90;3.67;;;-3.40;76.90;;;;;;5018253;28;20042;-69
2022/03/21 03:59:10;;;;;;;6.82;4.03;;;-3.40;76.80;;;;;;4996790;28;20618;-69
2022/03/21 04:01:38;;;;;;;6.53;4.05;;;-3.40;77.10;;;;;;5018138;28;20041;-69
2022/03/21 04:04:04;;;;;;;6.20;4.10;;;-3.40;77.50;;;;;;5012039;28;20198;-69
2022/03/21 04:06:30;;;;;;;6.65;3.55;;;-3.40;77.80;;;;;;5017667;28;20053;-69
2022/03/21 04:08:56;;;;;;;8.77;3.85;;;-3.40;78.20;;;;;;5014749;28;20046;-69
2022/03/21 04:11:22;;;;;;;6.25;4.50;;;-3.40;77.90;;;;;;5012128;28;20570;-69
2022/03/21 04:13:48;;;;;;;7.10;4.05;;;-3.50;77.30;;;;;;5012442;28;20033;-71
2022/03/21 04:16:14;;;;;;;6.00;4.50;;;-3.50;77.90;;;;;;5017064;28;20029;-71
2022/03/21 04:18:40;;;;;;;6.03;3.90;;;-3.40;78.10;;;;;;5025305;28;20048;-71
2022/03/21 04:21:05;;;;;;;10.23;5.20;;;-3.40;77.70;;;;;;5019711;28;20045;-71
2022/03/21 04:23:32;;;;;;;7.22;4.30;;;-3.40;77.70;;;;;;5016063;28;20037;-71
2022/03/21 04:25:58;;;;;;;14.07;7.45;;;-3.40;78.10;;;;;;5017428;28;20034;-71
2022/03/21 04:28:23;;;;;;;7.32;4.22;;;-3.30;77.70;;;;;;5014662;28;20168;-71
2022/03/21 04:30:49;;;;;;;5.03;3.45;;;-3.20;77.20;;;;;;5015141;28;20514;-71
2022/03/21 04:33:15;;;;;;;5.80;4.15;;;-3.40;76.10;;;;;;5021586;28;20041;-71
2022/03/21 04:35:43;;;;;;;5.32;3.58;;;-3.70;79.30;;;;;;5018430;28;20469;-71
2022/03/21 04:38:17;;;;;;;6.43;4.20;;;-3.80;80.20;;;;;;5017789;28;20037;-71
2022/03/21 04:40:46;;;;;;;9.38;3.78;;;-3.90;82.20;;;;;;5017278;28;20033;-71
2022/03/21 04:43:13;;;;;;;9.23;3.30;;;-3.80;82.90;;;;;;5019919;28;20121;-71
2022/03/21 04:45:40;;;;;;;7.15;4.32;;;-3.70;83.90;;;;;;5020050;28;20048;-71
2022/03/21 04:48:05;;;;;;;4.65;3.47;;;-3.60;83.90;;;;;;5025428;28;20046;-71
2022/03/21 04:50:32;;;;;;;6.07;3.95;;;-3.60;82.80;;;;;;5019892;28;20668;-71
2022/03/21 04:52:59;;;;;;;7.30;3.65;;;-3.60;83.40;;;;;;5018402;28;20033;-72
2022/03/21 04:55:24;;;;;;;7.35;4.07;;;-3.60;82.60;;;;;;5022956;28;20052;-71
2022/03/21 04:57:50;;;;;;;6.50;3.53;;;-3.70;82.30;;;;;;5022653;28;20746;-71
2022/03/21 05:00:16;;;;;;;4.90;3.38;;;-3.70;82.80;;;;;;5002013;28;20076;-71
2022/03/21 05:02:41;;;;;;;6.45;3.80;;;-3.70;83.00;;;;;;5017922;28;20038;-71
2022/03/21 05:05:11;;;;;;;10.55;4.35;;;-3.70;84.70;;;;;;5028251;28;20038;-71
2022/03/21 05:07:41;;;;;;;7.00;4.00;;;-3.70;83.90;;;;;;5016298;28;20038;-71
2022/03/21 05:10:08;;;;;;;8.75;4.78;;;-3.70;84.10;;;;;;5027202;28;20498;-71
2022/03/21 05:12:33;;;;;;;9.55;5.20;;;-3.60;84.90;;;;;;5027401;28;20049;-73
2022/03/21 05:14:59;;;;;;;6.25;4.35;;;-3.40;84.60;;;;;;5017128;28;20046;-74
2022/03/21 05:17:28;;;;;;;7.90;4.45;;;-3.30;85.90;;;;;;5022163;28;20437;-73
2022/03/21 05:19:54;;;;;;;6.22;4.03;;;-3.30;85.30;;;;;;5019955;28;20048;-72
2022/03/21 05:22:19;;;;;;;10.25;4.32;;;-3.30;84.70;;;;;;5024179;28;20028;-72
2022/03/21 05:35:59;;;;;;;7.55;4.82;;;-3.00;85.90;;;;;;5012399;28;20541;-74
2022/03/21 05:38:26;;;;;;;12.63;5.55;;;-2.70;86.40;;;;;;5018202;28;20035;-74
2022/03/21 05:40:56;;;;;;;6.93;4.18;;;-2.60;86.20;;;;;;5025269;28;20060;-73
2022/03/21 05:43:23;;;;;;;10.10;4.72;;;-2.50;86.20;;;;;;5022361;28;20048;-73
2022/03/21 05:45:49;;;;;;;9.57;4.55;;;-2.40;87.30;;;;;;5024061;28;20042;-74
2022/03/21 05:51:00;;;;;;;6.40;4.25;;;-2.20;87.00;;;;;;5022045;28;20144;-73
2022/03/21 05:53:25;;;;;;;7.00;4.72;;;-2.00;87.50;;;;;;4998787;28;20524;-74
2022/03/21 05:55:51;;;;;;;9.82;4.50;;;-1.80;86.60;;;;;;5014162;28;20056;-72
2022/03/21 05:58:17;;;;;;;7.13;4.47;;;-1.60;86.70;;;;;;5021432;28;20094;-72
2022/03/21 06:00:43;;;;;;;6.35;4.68;;;-1.40;85.10;;;;;;5018499;28;20033;-72
2022/03/21 06:03:09;;;;;;;7.85;4.90;;;-1.30;84.50;;;;;;5015895;28;20073;-73
2022/03/21 06:05:35;;;;;;;11.07;5.15;;;-1.20;83.80;;;;;;5019310;28;20845;-71
2022/03/21 06:08:01;;;;;;;12.40;6.53;;;-1.00;84.10;;;;;;5002114;28;20033;-72
2022/03/21 06:10:27;;;;;;;11.45;6.32;;;-0.70;84.60;;;;;;5019529;28;20029;-72
2022/03/21 06:12:53;;;;;;;7.85;5.13;;;-0.50;83.00;;;;;;5020487;28;20041;-72
2022/03/21 06:15:19;;;;;;;14.40;8.50;;;-0.30;84.00;;;;;;5015752;28;20124;-73
2022/03/21 06:17:45;;;;;;;38.80;19.27;;;-0.20;83.30;;;;;;5020250;28;20036;-74
2022/03/21 06:20:16;;;;;;;41.15;20.08;;;-0.10;84.30;;;;;;5017572;28;20052;-72
2022/03/21 06:22:42;;;;;;;33.00;17.00;;;0.10;84.20;;;;;;5013915;28;20033;-71
2022/03/21 06:25:09;;;;;;;33.67;18.70;;;0.30;84.60;;;;;;5018788;28;20037;-71
2022/03/21 06:27:37;;;;;;;25.83;14.30;;;0.50;84.20;;;;;;5013303;28;20041;-71
2022/03/21 06:30:05;;;;;;;31.02;13.93;;;0.80;82.80;;;;;;5017671;28;20025;-71
2022/03/21 06:32:30;;;;;;;26.83;15.35;;;1.00;83.00;;;;;;5014939;28;20104;-70
2022/03/21 06:34:56;;;;;;;25.33;15.50;;;1.20;82.30;;;;;;5021263;28;20040;-71
2022/03/21 06:37:22;;;;;;;29.92;15.15;;;1.30;81.50;;;;;;5018692;28;20096;-66
2022/03/21 06:39:47;;;;;;;31.27;18.52;;;1.40;81.50;;;;;;5021096;28;20186;-71
2022/03/21 06:42:14;;;;;;;19.23;12.07;;;1.60;81.40;;;;;;5017220;28;20041;-71
2022/03/21 06:44:41;;;;;;;62.80;30.17;;;1.70;82.40;;;;;;5012371;28;20107;-71
2022/03/21 06:47:08;;;;;;;70.90;37.15;;;1.80;83.70;;;;;;4976911;28;1134311;-70
2022/03/21 06:49:34;;;;;;;71.10;36.25;;;2.00;82.90;;;;;;5013284;28;23004;-71
2022/03/21 06:52:04;;;;;;;58.92;29.38;;;2.30;81.90;;;;;;5017426;28;20494;-71
2022/03/21 06:54:30;;;;;;;58.65;29.42;;;2.50;79.80;;;;;;5017191;28;20057;-71
2022/03/21 06:56:56;;;;;;;46.60;24.63;;;2.80;79.30;;;;;;5021698;28;20033;-71
2022/03/21 06:59:22;;;;;;;37.63;23.98;;;3.10;79.00;;;;;;4997976;28;20075;-70
2022/03/21 07:01:48;;;;;;;22.70;13.10;;;3.50;77.10;;;;;;5022428;28;20041;-69
2022/03/21 07:04:14;;;;;;;15.63;9.95;;;3.70;73.50;;;;;;5016967;28;20064;-69
2022/03/21 07:06:39;;;;;;;11.07;6.88;;;4.10;67.70;;;;;;5020789;28;20144;-70
2022/03/21 07:09:05;;;;;;;51.75;36.72;;;4.40;65.60;;;;;;5020112;28;20620;-70
2022/03/21 07:11:32;;;;;;;17.40;11.32;;;4.60;63.50;;;;;;5016902;28;20759;-69
2022/03/21 07:13:58;;;;;;;12.55;8.90;;;4.80;61.80;;;;;;5020457;28;20050;-70
2022/03/21 07:16:23;;;;;;;48.30;29.45;;;5.00;61.20;;;;;;5019760;28;20462;-69
2022/03/21 07:18:49;;;;;;;121.82;67.95;;;5.30;61.20;;;;;;5017709;28;20049;-70
2022/03/21 07:21:16;;;;;;;239.88;97.00;;;5.40;60.40;;;;;;5017857;28;20411;-69
2022/03/21 07:23:42;;;;;;;59.70;30.52;;;5.60;59.10;;;;;;5021107;28;20037;-69
2022/03/21 07:26:08;;;;;;;12.55;8.38;;;5.80;59.00;;;;;;5021930;28;20033;-70
2022/03/21 07:28:35;;;;;;;16.08;12.57;;;5.80;55.90;;;;;;5020102;28;20036;-69
2022/03/21 07:31:01;;;;;;;11.35;7.50;;;5.80;56.70;;;;;;5027805;28;20033;-69
2022/03/21 07:33:26;;;;;;;9.93;7.05;;;6.00;57.00;;;;;;5021938;28;20056;-70
2022/03/21 07:35:52;;;;;;;10.38;6.93;;;6.10;56.40;;;;;;5023993;28;20136;-70
2022/03/21 07:38:19;;;;;;;14.48;7.53;;;6.30;55.40;;;;;;5021748;28;20120;-71
2022/03/21 07:40:46;;;;;;;12.30;8.20;;;6.40;56.40;;;;;;5022440;28;20184;-70
2022/03/21 07:43:15;;;;;;;10.65;7.55;;;6.50;54.80;;;;;;4999929;28;20100;-70
2022/03/21 07:48:27;;;;;;;13.98;9.63;;;6.60;54.20;;;;;;5004850;28;20048;-69
2022/03/21 07:50:54;;;;;;;12.82;9.27;;;6.70;54.20;;;;;;5022595;28;20082;-70
2022/03/21 07:53:20;;;;;;;11.30;8.27;;;6.70;52.90;;;;;;5016889;28;20036;-69
2022/03/21 07:55:46;;;;;;;11.00;8.02;;;6.80;53.70;;;;;;4998889;28;20038;-72
2022/03/21 07:58:12;;;;;;;16.52;12.90;;;7.00;53.60;;;;;;5001090;28;20041;-71
2022/03/21 08:00:41;;;;;;;11.57;8.38;;;7.20;52.40;;;;;;5017818;28;20099;-72
2022/03/21 08:03:11;;;;;;;11.70;7.57;;;7.40;52.20;;;;;;5014339;28;20037;-73
2022/03/21 08:05:37;;;;;;;11.98;7.57;;;7.40;52.10;;;;;;5013119;28;20055;-72
2022/03/21 08:08:03;;;;;;;13.50;8.32;;;7.40;51.90;;;;;;5011903;28;20249;-71
2022/03/21 08:10:29;;;;;;;12.60;7.50;;;7.70;52.60;;;;;;5020781;28;20033;-72
2022/03/21 08:12:56;;;;;;;12.82;8.38;;;7.90;51.20;;;;;;5011195;28;20045;-72
2022/03/21 08:15:22;;;;;;;14.45;10.60;;;8.10;51.00;;;;;;5015315;28;20450;-72
2022/03/21 08:18:03;;;;;;;11.13;7.47;;;8.10;50.00;;;;;;5020218;28;20489;-71
2022/03/21 08:20:33;;;;;;;12.55;8.20;;;8.00;49.40;;;;;;5022699;28;20398;-72
2022/03/21 08:23:09;;;;;;;10.95;8.30;;;7.80;51.10;;;;;;5016700;28;20128;-71
2022/03/21 08:25:39;;;;;;;12.25;8.05;;;8.00;50.50;;;;;;5017041;28;20049;-72
2022/03/21 08:28:06;;;;;;;11.88;8.85;;;8.10;50.50;;;;;;5014636;28;20029;-72
2022/03/21 08:30:35;;;;;;;10.60;7.65;;;8.30;49.80;;;;;;5017002;28;20040;-72
2022/03/21 08:33:02;;;;;;;13.48;8.80;;;8.50;49.80;;;;;;5016475;28;20045;-72
2022/03/21 08:35:29;;;;;;;13.05;9.75;;;8.60;49.20;;;;;;5011847;28;20041;-72
2022/03/21 08:37:54;;;;;;;11.13;8.40;;;8.60;48.10;;;;;;5020719;28;20048;-72
2022/03/21 08:40:20;;;;;;;12.70;9.50;;;8.70;48.30;;;;;;5015410;28;20045;-72
2022/03/21 08:42:47;;;;;;;12.32;8.75;;;8.60;47.80;;;;;;5011237;28;20049;-72
2022/03/21 08:45:13;;;;;;;12.57;9.88;;;8.70;48.60;;;;;;5014770;28;20434;-72
2022/03/21 08:47:39;;;;;;;14.73;8.60;;;8.70;48.80;;;;;;5014795;28;20095;-73
2022/03/21 08:50:06;;;;;;;11.88;8.32;;;8.80;48.00;;;;;;5016542;28;20632;-72
2022/03/21 08:52:32;;;;;;;11.38;8.65;;;8.80;47.30;;;;;;5022731;28;20040;-73
2022/03/21 08:54:58;;;;;;;11.95;8.02;;;8.70;47.80;;;;;;5013435;28;20971;-73
2022/03/21 08:57:24;;;;;;;12.23;9.02;;;8.90;47.10;;;;;;5010347;28;20045;-72
2022/03/21 08:59:52;;;;;;;13.05;9.15;;;9.00;48.00;;;;;;5010582;28;20638;-72
2022/03/21 09:02:18;;;;;;;10.85;8.25;;;9.20;47.80;;;;;;5011108;28;20116;-73
2022/03/21 09:04:45;;;;;;;12.60;8.23;;;9.30;47.60;;;;;;5018805;28;20061;-73
2022/03/21 09:07:13;;;;;;;11.23;7.78;;;9.40;48.10;;;;;;5012983;28;20517;-73
2022/03/21 09:09:39;;;;;;;10.88;8.35;;;9.50;47.00;;;;;;5020029;28;20056;-73
2022/03/21 09:12:05;;;;;;;17.60;9.00;;;9.60;45.40;;;;;;5020699;28;20564;-74
2022/03/21 09:14:31;;;;;;;11.30;8.10;;;9.40;46.60;;;;;;5019045;28;20041;-73
2022/03/21 09:16:57;;;;;;;11.63;7.75;;;9.40;45.90;;;;;;5021031;28;21117;-73
2022/03/21 09:19:23;;;;;;;13.48;8.63;;;9.60;45.60;;;;;;4998742;28;20104;-72
2022/03/21 09:21:50;;;;;;;9.45;7.47;;;9.60;46.00;;;;;;5015980;28;20034;-73
2022/03/21 09:24:16;;;;;;;12.07;8.38;;;9.70;46.00;;;;;;5009699;28;20040;-72
2022/03/21 09:26:42;;;;;;;10.50;8.20;;;9.90;45.80;;;;;;4997988;28;20073;-73
2022/03/21 09:29:09;;;;;;;10.63;7.93;;;9.90;45.60;;;;;;5018332;28;20064;-73
2022/03/21 09:31:39;;;;;;;11.38;7.70;;;9.90;46.20;;;;;;5018897;28;20029;-73
2022/03/21 09:34:09;;;;;;;10.15;7.47;;;10.00;45.20;;;;;;5016617;28;20039;-73
2022/03/21 09:36:35;;;;;;;12.00;7.43;;;10.10;45.70;;;;;;5015285;28;20075;-73
2022/03/21 09:39:02;;;;;;;9.60;7.68;;;10.20;44.50;;;;;;5026271;28;20033;-73
2022/03/21 09:41:29;;;;;;;11.95;8.25;;;10.40;44.70;;;;;;5023131;28;20037;-72
2022/03/21 09:44:00;;;;;;;13.10;9.15;;;10.50;44.30;;;;;;5029301;28;20036;-72
2022/03/21 09:46:26;;;;;;;14.35;9.60;;;10.50;44.50;;;;;;5016481;28;20140;-72
2022/03/21 09:48:54;;;;;;;14.45;8.50;;;10.50;45.00;;;;;;5014103;28;20836;-73
2022/03/21 09:51:22;;;;;;;9.43;8.40;;;10.70;45.10;;;;;;5007086;28;20128;-74
2022/03/21 09:53:48;;;;;;;8.55;7.60;;;10.90;44.10;;;;;;5012489;28;20886;-75
2022/03/21 09:56:16;;;;;;;13.32;7.72;;;11.10;44.50;;;;;;5014932;28;20137;-74
2022/03/21 09:58:42;;;;;;;9.40;8.00;;;11.10;42.70;;;;;;5015869;28;20199;-73
2022/03/21 10:01:10;;;;;;;11.98;8.25;;;11.20;42.10;;;;;;5012460;28;20040;-73
2022/03/21 10:03:38;;;;;;;13.45;7.78;;;11.30;42.80;;;;;;5007112;28;20038;-74
2022/03/21 10:06:34;;;;;;;11.90;8.00;;;11.40;42.20;;;;;;5019872;28;20041;-73
2022/03/21 10:09:10;;;;;;;11.40;7.60;;;11.40;41.80;;;;;;5005508;28;20057;-73
2022/03/21 10:11:36;;;;;;;9.05;7.38;;;11.70;42.30;;;;;;5018403;28;20029;-73
2022/03/21 10:14:32;;;;;;;10.98;8.30;;;11.70;42.00;;;;;;5015372;28;20032;-74
2022/03/21 10:16:59;;;;;;;9.15;6.78;;;11.80;41.40;;;;;;5013090;28;20033;-73
2022/03/21 10:19:25;;;;;;;11.88;7.45;;;12.00;38.90;;;;;;5018990;28;20030;-73
2022/03/21 10:22:19;;;;;;;11.07;7.07;;;11.90;35.90;;;;;;4999879;28;21902;-73
2022/03/21 10:24:49;;;;;;;10.77;7.38;;;12.20;35.20;;;;;;5011562;28;20045;-72
2022/03/21 10:27:38;;;;;;;11.05;7.90;;;12.30;36.90;;;;;;5011784;28;20095;-73
2022/03/21 10:30:13;;;;;;;8.32;6.43;;;12.40;35.70;;;;;;5015023;28;20086;-74
2022/03/21 10:32:51;;;;;;;9.88;7.07;;;12.30;34.60;;;;;;5004364;28;20426;-74
2022/03/21 10:35:26;;;;;;;11.13;7.60;;;12.00;35.40;;;;;;4998168;28;20045;-72
2022/03/21 10:38:00;;;;;;;9.77;7.38;;;12.00;36.00;;;;;;5009898;28;20560;-74
2022/03/21 10:40:31;;;;;;;8.77;7.13;;;12.10;35.80;;;;;;5021081;28;20073;-73
2022/03/21 10:43:03;;;;;;;9.25;7.15;;;12.30;35.20;;;;;;5014300;28;20029;-74
2022/03/21 10:45:42;;;;;;;9.77;7.63;;;12.70;39.50;;;;;;5012401;28;20143;-73
2022/03/21 10:48:17;;;;;;;10.82;7.35;;;12.80;38.10;;;;;;5008266;28;20056;-73
2022/03/21 10:50:46;;;;;;;11.48;7.00;;;12.60;38.20;;;;;;5007244;28;20029;-73
2022/03/21 10:53:21;;;;;;;12.48;8.45;;;12.50;37.60;;;;;;5002182;28;20038;-72
2022/03/21 10:55:49;;;;;;;13.70;7.65;;;12.40;38.50;;;;;;5001409;28;20048;-72
2022/03/21 10:58:30;;;;;;;8.35;6.82;;;12.40;38.60;;;;;;5017481;28;20040;-72
2022/03/21 11:01:08;;;;;;;14.30;7.75;;;12.30;37.50;;;;;;5013213;28;20124;-72
2022/03/21 11:03:40;;;;;;;11.13;6.88;;;12.20;37.30;;;;;;5016804;28;20465;-72
2022/03/21 11:06:05;;;;;;;9.00;6.53;;;12.30;38.50;;;;;;5015122;28;20055;-73
2022/03/21 11:08:31;;;;;;;8.50;5.75;;;12.50;37.50;;;;;;5015746;28;20034;-73
2022/03/21 11:10:57;;;;;;;9.88;6.38;;;12.50;37.70;;;;;;5021003;28;20046;-72
2022/03/21 11:13:25;;;;;;;12.52;6.43;;;12.50;37.60;;;;;;5013874;28;20037;-76
2022/03/21 11:15:51;;;;;;;12.90;6.80;;;12.60;38.60;;;;;;5006334;28;20096;-72
2022/03/21 11:18:21;;;;;;;8.20;6.72;;;12.80;37.40;;;;;;5024189;28;20040;-73
2022/03/21 11:20:47;;;;;;;8.10;6.35;;;13.00;36.90;;;;;;5028733;28;20038;-72
2022/03/21 11:23:18;;;;;;;8.05;7.07;;;13.10;37.50;;;;;;5019478;28;20043;-72
2022/03/21 11:25:52;;;;;;;9.18;6.38;;;13.20;38.20;;;;;;5023256;28;20041;-72
2022/03/21 11:28:39;;;;;;;15.15;6.68;;;13.40;37.80;;;;;;5026089;28;20078;-73
2022/03/21 11:31:31;;;;;;;9.40;6.70;;;13.60;36.90;;;;;;5027564;28;20037;-72
2022/03/21 11:34:19;;;;;;;8.57;6.27;;;13.60;36.00;;;;;;5035421;28;20056;-72
2022/03/21 11:36:56;;;;;;;10.10;6.07;;;13.50;35.00;;;;;;5035868;28;20034;-72
2022/03/21 11:39:23;;;;;;;9.07;6.97;;;13.50;34.70;;;;;;5024277;28;20030;-72
2022/03/21 11:42:10;;;;;;;10.88;6.93;;;13.40;34.60;;;;;;5034050;28;20042;-72
2022/03/21 11:44:37;;;;;;;17.95;15.95;;;13.50;34.50;;;;;;5024197;28;20045;-72
2022/03/21 11:47:24;;;;;;;11.60;7.30;;;13.40;34.60;;;;;;5030345;28;20072;-73
2022/03/21 11:49:51;;;;;;;9.52;7.03;;;13.30;34.80;;;;;;5008024;28;20052;-73
2022/03/21 11:52:17;;;;;;;7.25;5.82;;;13.20;35.80;;;;;;5025444;28;20434;-72
2022/03/21 11:54:44;;;;;;;9.23;6.45;;;13.40;34.40;;;;;;5013629;28;20481;-72
2022/03/21 11:57:16;;;;;;;9.57;6.70;;;13.50;35.30;;;;;;5023601;28;21198;-72
2022/03/21 11:59:41;;;;;;;12.40;6.68;;;13.60;35.00;;;;;;5023637;28;20069;-73
2022/03/21 12:02:10;;;;;;;12.85;6.80;;;13.90;35.00;;;;;;5031295;28;20057;-72
2022/03/21 12:04:39;;;;;;;9.80;7.30;;;14.00;34.30;;;;;;5025553;28;20124;-72
2022/03/21 12:07:14;;;;;;;12.27;7.22;;;13.90;35.00;;;;;;5029225;28;20035;-72
2022/03/21 12:09:43;;;;;;;14.13;7.30;;;13.90;35.70;;;;;;5026825;28;20107;-72
2022/03/21 12:12:10;;;;;;;9.40;6.90;;;13.70;34.70;;;;;;5022501;28;20030;-72
2022/03/21 12:14:46;;;;;;;10.48;7.10;;;13.70;35.70;;;;;;5028288;28;20038;-72
2022/03/21 12:17:11;;;;;;;8.10;6.60;;;13.80;35.70;;;;;;5028244;28;20025;-72
2022/03/21 12:22:30;;;;;;;10.65;7.65;;;14.20;34.30;;;;;;5027326;28;20025;-73
2022/03/21 12:24:59;;;;;;;12.55;7.50;;;14.30;35.60;;;;;;5020320;28;20064;-72
2022/03/21 12:27:33;;;;;;;10.35;7.15;;;14.30;35.40;;;;;;5024202;28;20032;-74
2022/03/21 12:30:27;;;;;;;13.93;6.47;;;14.30;34.80;;;;;;5020227;28;20029;-72
2022/03/21 12:33:05;;;;;;;12.80;6.43;;;14.30;34.20;;;;;;5021142;28;20037;-72
2022/03/21 12:35:31;;;;;;;11.23;8.65;;;14.40;34.10;;;;;;5021018;28;20037;-72
2022/03/21 12:38:28;;;;;;;9.70;7.22;;;14.40;34.10;;;;;;5029531;28;20073;-72
2022/03/21 12:41:00;;;;;;;7.93;6.50;;;14.50;34.30;;;;;;5023118;28;20198;-73
2022/03/21 12:43:27;;;;;;;;;;;14.60;34.40;;;;;;5031372;28;20038;-72
2022/03/21 12:46:07;;;;;;;12.05;7.63;;;14.50;33.20;;;;;;5031532;28;19968;-72
2022/03/21 12:48:37;;;;;;;7.90;6.18;;;14.50;33.00;;;;;;5038465;28;20092;-72
2022/03/21 12:51:05;;;;;;;8.73;6.75;;;14.10;33.50;;;;;;5039584;28;20025;-72
2022/03/21 12:53:45;;;;;;;9.95;6.90;;;14.00;34.30;;;;;;5029032;28;20050;-71
2022/03/21 12:56:13;;;;;;;9.65;6.45;;;14.00;34.70;;;;;;5027962;28;20042;-74
2022/03/21 12:58:45;;;;;;;10.05;6.85;;;14.20;33.90;;;;;;5037205;28;20095;-73
2022/03/21 13:01:13;;;;;;;10.65;6.85;;;14.20;33.30;;;;;;5034234;28;20026;-72
2022/03/21 13:03:38;;;;;;;11.15;7.25;;;14.30;33.60;;;;;;5030865;28;20037;-73
2022/03/21 13:11:44;;;;;;;11.82;6.78;;;14.50;33.10;;;;;;5019846;28;22288;-72
2022/03/21 13:14:14;;;;;;;9.63;6.90;;;14.50;34.50;;;;;;5028567;28;20042;-71
2022/03/21 13:16:50;;;;;;;8.77;7.10;;;14.50;34.30;;;;;;5038957;28;20030;-73
2022/03/21 13:19:20;;;;;;;9.60;7.10;;;14.50;34.00;;;;;;5033955;28;20064;-72